Time;durP1;ratioP1;P1;durP2;ratioP2;P2;SDS_P1;SDS_P2;PMS_P1;PMS_P2;Temp;Humidity;BMP_temperature;BMP_pressure;BME280_temperature;BME280_humidity;BME280_pressure;Samples;Min_cycle;Max_cycle;Signal;HPM_P1;HPM_P2
2022/11/07 00:01:19;;;;;;;4.90;3.40;;;;;;;9.64;76.50;100118.11;105500;1294;58917;-78
2022/11/07 00:03:46;;;;;;;5.00;3.40;;;;;;;9.67;76.57;100113.67;105506;1294;75232;-78
2022/11/07 00:06:13;;;;;;;5.50;3.60;;;;;;;9.73;76.42;100114.05;105544;1294;69241;-78
2022/11/07 00:08:39;;;;;;;4.70;3.20;;;;;;;9.73;76.40;100119.31;105421;1297;71095;-78
2022/11/07 00:11:06;;;;;;;4.70;3.70;;;;;;;9.76;76.51;100117.75;105378;1294;61784;-78
2022/11/07 00:13:33;;;;;;;4.90;3.50;;;;;;;9.76;76.59;100121.90;105453;1287;59618;-78
2022/11/07 00:16:05;;;;;;;4.80;3.40;;;;;;;9.77;76.50;100126.73;105593;1293;75899;-78
2022/11/07 00:18:32;;;;;;;4.20;3.40;;;;;;;9.79;76.64;100136.09;105349;1297;71649;-77
2022/11/07 00:21:07;;;;;;;5.00;3.20;;;;;;;9.79;76.77;100137.30;105526;1289;71363;-78
2022/11/07 00:23:35;;;;;;;5.20;3.10;;;;;;;9.83;76.74;100139.22;105475;1293;61613;-77
2022/11/07 00:26:08;;;;;;;6.80;3.00;;;;;;;9.85;76.64;100142.80;105452;1282;60212;-77
2022/11/07 00:28:36;;;;;;;4.30;2.90;;;;;;;9.89;76.59;100137.03;105460;1289;73109;-77
2022/11/07 00:31:03;;;;;;;4.20;2.80;;;;;;;9.93;76.57;100140.45;105588;1286;69860;-77
2022/11/07 00:33:30;;;;;;;6.00;3.10;;;;;;;9.96;76.53;100140.76;105506;1294;73160;-78
2022/11/07 00:35:57;;;;;;;3.40;2.50;;;;;;;10.00;76.56;100144.39;105294;1287;61973;-78
2022/11/07 00:38:23;;;;;;;3.70;2.70;;;;;;;10.04;76.38;100142.32;105559;1294;59453;-77
2022/11/07 00:40:57;;;;;;;4.30;3.00;;;;;;;10.08;76.11;100137.64;105542;1286;72665;-77
2022/11/07 00:43:24;;;;;;;3.80;2.40;;;;;;;10.12;76.09;100137.48;105525;1294;70976;-77
2022/11/07 00:45:51;;;;;;;4.70;2.80;;;;;;;10.14;76.00;100144.23;105504;1294;71623;-77
2022/11/07 00:48:18;;;;;;;3.90;2.50;;;;;;;10.18;75.85;100146.57;105589;1296;62031;-78
2022/11/07 00:50:45;;;;;;;4.20;2.40;;;;;;;10.20;75.68;100144.96;105443;1298;59060;-77
2022/11/07 00:53:12;;;;;;;3.40;2.30;;;;;;;10.21;75.71;100148.85;105484;1294;74591;-77
2022/11/07 00:55:39;;;;;;;6.20;3.10;;;;;;;10.24;75.73;100146.49;105334;1289;69239;-78
2022/11/07 00:58:07;;;;;;;4.40;2.50;;;;;;;10.26;75.61;100152.80;105592;1294;72406;-78
2022/11/07 01:00:40;;;;;;;4.30;2.40;;;;;;;10.26;75.74;100156.81;105464;1293;62110;-78
2022/11/07 01:06:00;;;;;;;4.40;2.30;;;;;;;10.26;75.86;100152.33;105541;1294;73536;-78
2022/11/07 01:08:27;;;;;;;3.50;2.30;;;;;;;10.28;75.96;100154.23;105467;1295;69658;-78
2022/11/07 01:10:54;;;;;;;4.30;2.30;;;;;;;10.29;75.88;100156.84;105521;1295;72926;-78
2022/11/07 01:13:21;;;;;;;5.20;2.50;;;;;;;10.30;75.80;100159.70;105499;1293;60429;-78
2022/11/07 01:15:47;;;;;;;4.90;2.50;;;;;;;10.32;75.88;100154.68;105374;1293;58701;-77
2022/11/07 01:18:14;;;;;;;5.20;2.30;;;;;;;10.33;75.84;100160.19;105398;1297;59547;-78
2022/11/07 01:20:40;;;;;;;4.30;2.20;;;;;;;10.34;75.83;100160.29;105527;1293;70987;-77
2022/11/07 01:23:07;;;;;;;3.30;2.10;;;;;;;10.34;75.86;100168.89;105437;1293;71017;-77
2022/11/07 01:25:38;;;;;;;3.20;2.20;;;;;;;10.35;75.97;100169.55;105580;1285;61753;-77
2022/11/07 01:28:05;;;;;;;4.50;2.20;;;;;;;10.37;75.97;100169.81;105478;1293;59290;-77
2022/11/07 01:30:32;;;;;;;3.90;2.00;;;;;;;10.37;75.96;100162.88;105468;1297;74366;-77
2022/11/07 01:32:58;;;;;;;3.40;2.00;;;;;;;10.36;76.08;100165.68;105472;1292;69977;-77
2022/11/07 01:35:25;;;;;;;4.20;2.30;;;;;;;10.36;76.07;100164.79;105575;1291;59274;-78
2022/11/07 01:37:52;;;;;;;4.30;2.10;;;;;;;10.36;76.12;100164.91;105465;1287;61708;-78
2022/11/07 01:40:18;;;;;;;3.50;1.90;;;;;;;10.37;76.04;100172.39;105418;1295;58961;-78
2022/11/07 01:42:45;;;;;;;4.50;2.20;;;;;;;10.40;75.98;100176.83;105433;1295;73195;-78
2022/11/07 01:45:27;;;;;;;3.00;2.00;;;;;;;10.42;76.04;100179.34;105484;1295;58865;-79
2022/11/07 01:47:57;;;;;;;4.70;2.10;;;;;;;10.43;75.89;100180.36;105453;1295;71139;-77
2022/11/07 01:50:24;;;;;;;3.90;2.00;;;;;;;10.46;75.90;100183.63;105457;1301;60750;-77
2022/11/07 01:52:53;;;;;;;3.30;2.10;;;;;;;10.48;75.72;100190.05;105581;1295;59430;-77
2022/11/07 01:55:30;;;;;;;3.30;2.10;;;;;;;10.50;75.74;100189.51;105578;1296;74194;-78
2022/11/07 01:58:00;;;;;;;3.60;2.10;;;;;;;10.51;75.69;100193.84;105423;1292;70119;-78
2022/11/07 02:00:28;;;;;;;4.00;2.20;;;;;;;10.53;75.54;100186.02;105472;1295;71399;-78
2022/11/07 02:02:58;;;;;;;5.10;2.30;;;;;;;10.55;75.51;100191.08;105456;1298;59541;-78
2022/11/07 02:05:35;;;;;;;3.70;2.40;;;;;;;10.55;75.52;100196.71;105589;1296;60330;-77
2022/11/07 02:08:06;;;;;;;3.10;1.90;;;;;;;10.56;75.48;100192.96;105439;1295;73748;-77
2022/11/07 02:10:38;;;;;;;3.20;2.00;;;;;;;10.58;75.34;100198.50;105461;1295;70148;-78
2022/11/07 02:13:06;;;;;;;3.20;2.10;;;;;;;10.58;75.27;100199.18;105540;1293;71143;-77
2022/11/07 02:15:34;;;;;;;5.10;2.70;;;;;;;10.60;75.22;100201.37;105505;1298;62067;-77
2022/11/07 02:18:01;;;;;;;3.30;2.00;;;;;;;10.61;75.21;100201.48;105501;1295;58870;-77
2022/11/07 02:20:28;;;;;;;3.40;2.00;;;;;;;10.63;75.10;100199.89;105385;1292;74448;-77
2022/11/07 02:23:04;;;;;;;3.80;2.30;;;;;;;10.64;75.16;100199.98;105589;1284;70087;-77
2022/11/07 02:25:31;;;;;;;3.50;2.20;;;;;;;10.65;75.03;100195.83;105346;1297;71752;-77
2022/11/07 02:28:02;;;;;;;3.60;2.00;;;;;;;10.69;75.03;100193.54;105511;1295;62195;-78
2022/11/07 02:30:32;;;;;;;3.00;1.70;;;;;;;10.68;75.14;100193.50;105531;1294;61946;-78
2022/11/07 02:33:00;;;;;;;5.80;2.10;;;;;;;10.68;75.10;100191.83;105413;1295;75853;-78
2022/11/07 02:35:43;;;;;;;3.00;1.70;;;;;;;10.70;75.16;100189.14;105464;1296;70423;-78
2022/11/07 02:38:12;;;;;;;3.60;1.90;;;;;;;10.70;75.11;100190.09;105470;1301;71607;-78
2022/11/07 02:40:39;;;;;;;2.90;1.70;;;;;;;10.69;75.04;100189.66;105563;1294;60436;-78
2022/11/07 02:43:09;;;;;;;4.20;1.80;;;;;;;10.69;75.02;100190.88;105555;1294;58908;-78
2022/11/07 02:45:39;;;;;;;4.50;2.00;;;;;;;10.70;75.15;100194.05;105488;1295;73105;-79
2022/11/07 02:48:05;;;;;;;3.30;1.70;;;;;;;10.72;75.17;100192.76;105353;1290;70358;-78
2022/11/07 02:50:32;;;;;;;4.00;1.80;;;;;;;10.71;75.02;100191.98;105569;1295;59295;-78
2022/11/07 02:52:59;;;;;;;4.10;1.90;;;;;;;10.73;75.12;100193.42;105448;1293;61693;-77
2022/11/07 02:55:25;;;;;;;4.80;2.10;;;;;;;10.73;75.20;100195.14;105569;1293;59221;-77
2022/11/07 02:57:52;;;;;;;2.90;1.60;;;;;;;10.73;75.21;100197.38;105434;1295;59286;-77
2022/11/07 03:00:18;;;;;;;4.30;1.90;;;;;;;10.73;75.17;100194.94;105492;1295;58966;-77
2022/11/07 03:02:47;;;;;;;2.80;1.60;;;;;;;10.73;75.20;100200.08;105403;1286;58452;-77
2022/11/07 03:05:17;;;;;;;3.60;1.90;;;;;;;10.74;75.24;100198.90;105470;1293;60725;-77
2022/11/07 03:07:45;;;;;;;4.30;1.50;;;;;;;10.74;75.40;100199.96;105432;1291;58957;-78
2022/11/07 03:10:12;;;;;;;2.70;1.60;;;;;;;10.73;75.39;100197.63;105492;1293;72939;-77
2022/11/07 03:12:39;;;;;;;3.50;1.80;;;;;;;10.71;75.42;100193.73;105468;1288;70975;-77
2022/11/07 03:15:08;;;;;;;4.20;1.80;;;;;;;10.72;75.52;100193.70;105467;1296;71148;-77
2022/11/07 03:17:35;;;;;;;3.60;1.90;;;;;;;10.72;75.46;100200.27;105414;1298;61225;-77
2022/11/07 03:20:02;;;;;;;3.50;1.70;;;;;;;10.72;75.55;100198.92;105486;1294;59171;-77
2022/11/07 03:22:29;;;;;;;3.60;1.80;;;;;;;10.71;75.66;100202.13;105538;1295;75679;-77
2022/11/07 03:24:55;;;;;;;3.50;1.70;;;;;;;10.71;75.72;100197.15;105437;1295;71213;-77
2022/11/07 03:27:22;;;;;;;4.50;1.80;;;;;;;10.71;75.85;100204.05;105405;1294;59342;-77
2022/11/07 03:29:48;;;;;;;3.90;1.80;;;;;;;10.72;75.89;100197.73;105563;1298;58976;-77
2022/11/07 03:32:15;;;;;;;2.30;1.50;;;;;;;10.72;75.81;100204.23;105522;1301;58367;-77
2022/11/07 03:34:42;;;;;;;4.30;1.60;;;;;;;10.75;75.89;100204.67;105515;1295;73814;-78
2022/11/07 03:37:08;;;;;;;3.30;1.50;;;;;;;10.74;75.87;100201.68;105577;1294;69752;-77
2022/11/07 03:39:35;;;;;;;3.90;1.80;;;;;;;10.76;75.91;100209.83;105502;1293;59368;-78
2022/11/07 03:42:01;;;;;;;5.70;2.10;;;;;;;10.76;76.01;100207.95;105575;1295;58990;-78
2022/11/07 03:44:28;;;;;;;3.40;1.50;;;;;;;10.77;75.93;100212.16;105598;1301;59246;-77
2022/11/07 03:46:54;;;;;;;5.10;1.60;;;;;;;10.79;76.02;100213.73;105521;1285;72648;-77
2022/11/07 03:49:21;;;;;;;3.50;1.70;;;;;;;10.79;76.02;100213.28;105476;1293;69525;-77
2022/11/07 03:51:47;;;;;;;3.40;1.50;;;;;;;10.81;75.97;100214.61;105555;1293;71717;-77
2022/11/07 03:54:14;;;;;;;3.30;1.60;;;;;;;10.83;76.06;100217.85;105563;1295;59047;-77
2022/11/07 03:56:40;;;;;;;3.70;1.50;;;;;;;10.83;76.06;100215.20;105548;1295;59191;-78
2022/11/07 03:59:07;;;;;;;3.10;1.40;;;;;;;10.82;75.98;100213.98;105535;1293;59283;-78
2022/11/07 04:01:33;;;;;;;2.50;1.60;;;;;;;10.84;76.10;100218.73;105548;1291;59092;-78
2022/11/07 04:04:00;;;;;;;3.00;1.40;;;;;;;10.84;75.99;100217.01;105515;1293;71130;-78
2022/11/07 04:06:26;;;;;;;5.20;1.70;;;;;;;10.84;75.94;100211.63;105552;1293;59427;-78
2022/11/07 04:08:53;;;;;;;4.20;1.50;;;;;;;10.86;76.03;100211.73;105579;1295;60315;-78
2022/11/07 04:17:20;;;;;;;5.10;1.40;;;;;;;10.85;75.99;100219.11;105451;1293;71251;-77
2022/11/07 04:19:50;;;;;;;4.10;1.50;;;;;;;10.85;76.04;100221.95;105557;1298;59979;-78
2022/11/07 04:22:17;;;;;;;3.30;1.40;;;;;;;10.86;75.97;100221.69;105430;1290;59203;-78
2022/11/07 04:24:44;;;;;;;3.10;1.50;;;;;;;10.87;75.98;100229.16;105554;1297;72888;-78
2022/11/07 04:29:58;;;;;;;4.10;1.30;;;;;;;10.89;75.94;100228.90;105558;1294;73473;-77
2022/11/07 04:32:25;;;;;;;3.30;1.20;;;;;;;10.90;75.76;100233.00;105419;1295;61743;-78
2022/11/07 04:34:51;;;;;;;3.90;1.60;;;;;;;10.91;75.75;100232.05;105484;1292;58991;-78
2022/11/07 04:37:18;;;;;;;4.30;1.50;;;;;;;10.92;75.74;100235.44;105583;1293;59144;-78
2022/11/07 04:39:44;;;;;;;4.30;1.30;;;;;;;10.93;75.77;100237.08;105483;1295;72032;-77
2022/11/07 04:42:11;;;;;;;4.50;1.60;;;;;;;10.94;75.69;100234.99;105544;1295;72641;-78
2022/11/07 04:44:37;;;;;;;4.00;1.30;;;;;;;10.93;75.93;100236.16;105431;1298;59149;-77
2022/11/07 04:47:04;;;;;;;3.60;1.40;;;;;;;10.92;75.86;100234.36;105589;1287;58329;-78
2022/11/07 04:49:30;;;;;;;3.50;1.30;;;;;;;10.91;75.92;100233.79;105606;1293;59010;-77
2022/11/07 04:51:57;;;;;;;3.30;1.20;;;;;;;10.87;75.92;100234.52;105573;1296;59026;-77
2022/11/07 04:54:23;;;;;;;2.50;1.30;;;;;;;10.83;76.29;100228.72;105547;1295;59428;-77
2022/11/07 04:56:50;;;;;;;3.80;1.30;;;;;;;10.79;76.38;100231.66;105491;1293;58917;-77
2022/11/07 04:59:16;;;;;;;2.60;1.40;;;;;;;10.77;76.66;100234.24;105448;1300;59019;-77
2022/11/07 05:01:43;;;;;;;3.20;1.30;;;;;;;10.75;76.67;100235.23;105627;1298;59015;-78
2022/11/07 05:04:09;;;;;;;3.10;1.30;;;;;;;10.73;76.94;100237.27;105508;1295;71239;-78
2022/11/07 05:06:36;;;;;;;3.40;1.40;;;;;;;10.74;76.99;100232.30;105558;1294;58969;-78
2022/11/07 05:09:03;;;;;;;4.60;1.30;;;;;;;10.75;76.88;100233.65;105428;1295;61873;-78
2022/11/07 05:11:30;;;;;;;4.30;1.20;;;;;;;10.75;77.17;100239.08;105606;1293;59042;-77
2022/11/07 05:13:56;;;;;;;3.80;1.40;;;;;;;10.76;77.08;100237.90;105528;1294;74063;-78
2022/11/07 05:16:23;;;;;;;2.80;1.30;;;;;;;10.78;77.13;100239.06;105561;1294;58916;-78
2022/11/07 05:18:49;;;;;;;3.70;1.20;;;;;;;10.82;76.99;100239.73;105498;1297;58991;-78
2022/11/07 05:21:16;;;;;;;3.40;1.20;;;;;;;10.84;76.98;100239.02;105531;1293;59693;-78
2022/11/07 05:23:42;;;;;;;2.50;1.10;;;;;;;10.88;76.86;100241.02;105573;1296;58914;-78
2022/11/07 05:26:09;;;;;;;3.50;1.10;;;;;;;10.90;76.84;100240.48;105497;1294;58993;-78
2022/11/07 05:28:35;;;;;;;3.00;0.90;;;;;;;10.93;76.80;100243.10;105442;1288;59247;-78
2022/11/07 05:31:07;;;;;;;3.90;1.30;;;;;;;10.93;77.03;100245.89;105587;1293;72160;-77
2022/11/07 05:33:34;;;;;;;2.90;1.20;;;;;;;10.93;77.03;100244.48;105367;1290;60474;-77
2022/11/07 05:36:12;;;;;;;3.90;1.30;;;;;;;10.93;77.28;100247.85;105441;1295;59781;-77
2022/11/07 05:38:41;;;;;;;4.50;1.20;;;;;;;10.92;77.73;100239.67;105470;1288;73792;-77
2022/11/07 05:41:08;;;;;;;4.60;1.30;;;;;;;10.91;77.77;100243.63;105394;1290;70234;-77
2022/11/07 05:43:37;;;;;;;4.00;1.40;;;;;;;10.91;78.03;100240.35;105508;1290;71249;-77
2022/11/07 05:46:04;;;;;;;4.40;1.20;;;;;;;10.87;77.93;100242.59;105361;1296;61150;-77
2022/11/07 05:48:31;;;;;;;3.20;1.10;;;;;;;10.87;77.80;100244.55;105339;1298;59181;-77
2022/11/07 05:50:57;;;;;;;4.40;1.10;;;;;;;10.87;77.85;100245.94;105460;1294;73088;-77
2022/11/07 05:53:27;;;;;;;3.50;1.00;;;;;;;10.89;77.68;100248.38;105596;1294;69859;-77
2022/11/07 05:55:54;;;;;;;4.90;1.50;;;;;;;10.90;77.68;100246.14;105462;1295;73757;-77
2022/11/07 05:58:21;;;;;;;2.50;0.90;;;;;;;10.92;77.39;100253.84;105589;1295;59977;-77
2022/11/07 06:00:48;;;;;;;3.10;1.20;;;;;;;10.94;77.33;100249.82;105393;1295;58995;-77
2022/11/07 06:03:16;;;;;;;5.00;1.20;;;;;;;10.96;77.03;100250.52;105410;1295;74561;-77
2022/11/07 06:05:44;;;;;;;3.40;1.00;;;;;;;10.98;76.96;100242.98;105432;1297;72560;-76
2022/11/07 06:08:58;;;;;;;3.20;1.10;;;;;;;11.00;77.01;100255.89;105267;1296;72566;-77
2022/11/07 06:11:48;;;;;;;3.00;1.00;;;;;;;11.01;76.94;100251.41;105029;1286;60621;-77
2022/11/07 06:14:15;;;;;;;2.70;0.80;;;;;;;11.00;76.76;100261.23;105505;1291;60339;-76
2022/11/07 06:16:42;;;;;;;4.30;1.10;;;;;;;10.99;76.71;100253.58;105473;1290;59339;-77
2022/11/07 06:19:08;;;;;;;5.10;1.20;;;;;;;10.99;76.79;100259.42;105439;1289;73577;-77
2022/11/07 06:21:35;;;;;;;3.30;1.20;;;;;;;10.98;76.70;100256.48;105346;1301;71078;-77
2022/11/07 06:24:02;;;;;;;4.60;1.20;;;;;;;10.96;76.85;100267.31;105457;1297;61086;-76
2022/11/07 06:26:29;;;;;;;3.70;1.00;;;;;;;10.98;76.92;100267.23;105407;1293;59333;-74
2022/11/07 06:28:55;;;;;;;3.80;1.30;;;;;;;11.00;76.87;100268.95;105458;1295;60313;-74
2022/11/07 06:31:22;;;;;;;3.20;1.10;;;;;;;11.01;76.80;100267.52;105479;1284;71737;-74
2022/11/07 06:33:50;;;;;;;3.30;1.20;;;;;;;11.00;76.96;100274.05;105549;1288;71096;-74
2022/11/07 06:36:16;;;;;;;4.10;1.00;;;;;;;11.01;76.91;100272.55;105449;1290;60034;-74
2022/11/07 06:38:43;;;;;;;5.10;1.40;;;;;;;11.01;76.99;100270.96;105519;1287;59950;-74
2022/11/07 06:41:12;;;;;;;3.90;1.10;;;;;;;11.00;76.94;100283.93;105682;1300;59509;-74
2022/11/07 06:43:39;;;;;;;3.40;1.10;;;;;;;10.98;77.14;100289.83;105460;1293;69199;-74
2022/11/07 06:46:09;;;;;;;4.60;1.30;;;;;;;10.97;77.14;100290.19;105472;1289;71138;-74
2022/11/07 06:48:36;;;;;;;3.50;1.00;;;;;;;10.96;77.22;100289.52;105546;1294;61042;-74
2022/11/07 06:51:04;;;;;;;3.20;1.20;;;;;;;10.96;77.26;100303.65;105406;1293;58932;-74
2022/11/07 06:53:31;;;;;;;4.00;1.30;;;;;;;10.98;77.21;100301.58;105459;1295;73704;-74
2022/11/07 06:55:59;;;;;;;2.60;1.30;;;;;;;10.98;77.30;100304.23;105421;1288;70308;-74
2022/11/07 06:58:25;;;;;;;4.00;1.20;;;;;;;10.98;77.31;100305.39;105415;1299;71748;-74
2022/11/07 07:00:52;;;;;;;3.70;1.10;;;;;;;11.00;77.39;100311.61;105557;1287;60810;-74
2022/11/07 07:03:19;;;;;;;5.60;1.20;;;;;;;11.05;77.13;100313.34;105236;1295;60273;-74
2022/11/07 07:05:45;;;;;;;4.10;1.30;;;;;;;11.08;77.17;100316.85;105389;1295;59656;-74
2022/11/07 07:08:13;;;;;;;5.30;1.30;;;;;;;11.12;77.03;100313.46;105510;1295;71272;-75
2022/11/07 07:10:43;;;;;;;4.00;1.10;;;;;;;11.17;76.97;100322.67;105570;1294;72586;-74
2022/11/07 07:13:11;;;;;;;6.60;1.50;;;;;;;11.22;76.87;100320.80;105438;1298;61990;-74
2022/11/07 07:15:38;;;;;;;3.30;1.30;;;;;;;11.25;76.84;100320.22;105407;1297;59086;-74
2022/11/07 07:18:16;;;;;;;4.10;1.10;;;;;;;11.28;76.78;100319.10;105420;1287;74194;-74
2022/11/07 07:20:44;;;;;;;4.00;1.10;;;;;;;11.32;76.62;100317.42;105443;1293;71704;-74
2022/11/07 07:23:10;;;;;;;3.30;1.10;;;;;;;11.35;76.56;100322.92;105403;1295;59812;-74
2022/11/07 07:25:37;;;;;;;6.20;1.70;;;;;;;11.39;76.56;100322.52;105585;1295;58988;-75
2022/11/07 07:28:03;;;;;;;3.70;1.10;;;;;;;11.43;76.24;100321.13;105541;1295;59005;-74
2022/11/07 07:30:29;;;;;;;4.50;1.50;;;;;;;11.47;76.12;100319.33;105500;1295;59273;-74
2022/11/07 07:32:56;;;;;;;4.00;1.20;;;;;;;11.51;76.09;100323.45;105418;1294;59007;-74
2022/11/07 07:35:22;;;;;;;5.80;1.60;;;;;;;11.54;75.84;100323.14;105521;1293;59083;-74
2022/11/07 07:37:50;;;;;;;3.20;1.20;;;;;;;11.55;75.94;100325.20;105527;1295;60243;-74
2022/11/07 07:40:20;;;;;;;3.90;1.20;;;;;;;11.55;76.04;100325.37;105449;1294;59249;-74
2022/11/07 07:42:47;;;;;;;4.00;1.20;;;;;;;11.54;75.91;100331.39;105443;1295;72816;-74
2022/11/07 07:45:14;;;;;;;4.80;1.30;;;;;;;11.56;76.05;100329.73;105566;1294;69022;-74
2022/11/07 07:47:41;;;;;;;3.20;1.20;;;;;;;11.54;76.04;100333.28;105376;1297;72935;-75
2022/11/07 07:50:10;;;;;;;2.80;1.20;;;;;;;11.57;75.89;100333.45;105419;1296;59871;-74
2022/11/07 07:52:37;;;;;;;4.10;1.30;;;;;;;11.60;75.97;100329.34;105444;1293;59333;-74
2022/11/07 07:55:07;;;;;;;4.10;1.40;;;;;;;11.63;75.88;100329.65;105357;1294;73112;-74
2022/11/07 07:57:39;;;;;;;2.70;1.10;;;;;;;11.70;75.62;100330.94;105440;1294;70368;-74
2022/11/07 08:00:07;;;;;;;2.50;1.00;;;;;;;11.73;75.58;100328.84;105408;1294;72760;-74
2022/11/07 08:02:33;;;;;;;4.40;1.30;;;;;;;11.75;75.23;100331.36;105525;1287;60434;-75
2022/11/07 08:05:00;;;;;;;3.20;1.10;;;;;;;11.84;75.21;100335.80;105456;1287;59404;-74
2022/11/07 08:07:26;;;;;;;4.40;1.10;;;;;;;11.95;74.92;100335.52;105443;1297;58987;-74
2022/11/07 08:09:53;;;;;;;3.80;1.20;;;;;;;12.04;74.46;100335.21;105569;1293;59538;-74
2022/11/07 08:12:19;;;;;;;3.90;1.20;;;;;;;12.15;74.39;100334.19;105423;1296;59164;-75
2022/11/07 08:14:45;;;;;;;3.40;1.10;;;;;;;12.22;74.19;100334.89;105637;1284;60329;-74
2022/11/07 08:17:12;;;;;;;3.90;1.40;;;;;;;12.22;73.78;100339.18;105557;1287;58883;-74
2022/11/07 08:19:38;;;;;;;4.20;1.10;;;;;;;12.24;73.65;100331.67;105451;1294;59280;-74
2022/11/07 08:22:05;;;;;;;4.80;1.20;;;;;;;12.18;73.70;100340.92;105577;1287;58840;-74
2022/11/07 08:24:31;;;;;;;5.10;1.50;;;;;;;12.18;73.96;100338.80;105445;1290;58930;-74
2022/11/07 08:26:58;;;;;;;4.30;1.60;;;;;;;12.15;74.06;100341.66;105575;1295;59309;-74
2022/11/07 08:29:24;;;;;;;6.00;1.40;;;;;;;12.16;74.17;100347.77;105553;1294;59356;-74
2022/11/07 08:31:51;;;;;;;3.90;1.30;;;;;;;12.19;74.09;100351.80;105431;1297;60389;-74
2022/11/07 08:34:17;;;;;;;3.10;1.20;;;;;;;12.26;74.00;100350.59;105594;1293;58671;-74
2022/11/07 08:36:44;;;;;;;5.70;1.20;;;;;;;12.32;73.69;100354.06;105523;1292;58986;-74
2022/11/07 08:39:10;;;;;;;5.10;1.40;;;;;;;12.35;73.53;100352.08;105574;1291;59461;-74
2022/11/07 08:41:37;;;;;;;5.20;1.30;;;;;;;12.37;73.40;100354.87;105523;1293;58965;-74
2022/11/07 08:44:03;;;;;;;4.80;1.30;;;;;;;12.39;73.24;100352.80;105571;1294;60442;-74
2022/11/07 08:46:30;;;;;;;4.80;1.60;;;;;;;12.43;73.23;100353.91;105467;1295;59743;-74
2022/11/07 08:48:56;;;;;;;3.10;1.30;;;;;;;12.45;73.23;100354.68;105505;1294;58960;-74
2022/11/07 08:51:23;;;;;;;5.40;1.30;;;;;;;12.52;73.06;100354.88;105586;1295;59318;-74
2022/11/07 08:53:49;;;;;;;5.80;1.20;;;;;;;12.59;72.78;100360.01;105383;1293;58950;-74
2022/11/07 08:56:16;;;;;;;4.10;1.20;;;;;;;12.67;72.55;100362.05;105511;1295;59261;-75
2022/11/07 08:58:43;;;;;;;5.60;1.40;;;;;;;12.81;72.39;100360.42;105398;1291;59385;-74
2022/11/07 09:01:09;;;;;;;5.40;1.20;;;;;;;12.90;71.70;100356.61;105578;1287;72894;-75
2022/11/07 09:03:37;;;;;;;4.20;1.10;;;;;;;12.98;71.42;100355.45;105449;1294;60466;-74
2022/11/07 09:06:18;;;;;;;5.00;1.00;;;;;;;13.07;70.94;100356.11;105507;1294;59608;-74
2022/11/07 09:08:45;;;;;;;4.70;1.10;;;;;;;13.16;70.55;100355.90;105345;1289;74832;-74
2022/11/07 09:11:14;;;;;;;4.60;1.20;;;;;;;13.17;70.28;100354.55;105441;1290;71797;-74
2022/11/07 09:13:41;;;;;;;3.90;1.10;;;;;;;13.15;70.26;100354.05;105462;1287;71388;-74
2022/11/07 09:16:07;;;;;;;5.50;1.00;;;;;;;13.15;70.02;100355.16;105444;1297;59331;-74
2022/11/07 09:18:34;;;;;;;4.20;1.10;;;;;;;13.21;70.07;100351.36;105367;1290;58978;-74
2022/11/07 09:21:01;;;;;;;4.50;1.10;;;;;;;13.23;69.86;100344.70;105628;1294;74427;-74
2022/11/07 09:23:28;;;;;;;2.90;0.90;;;;;;;13.27;69.93;100350.89;105603;1289;71008;-75
2022/11/07 09:25:58;;;;;;;4.10;1.20;;;;;;;13.29;69.71;100348.29;105625;1287;58249;-75
2022/11/07 09:28:24;;;;;;;4.90;0.90;;;;;;;13.35;69.58;100351.06;105546;1287;60956;-74
2022/11/07 09:30:55;;;;;;;4.70;1.00;;;;;;;13.41;69.34;100353.89;105599;1285;58937;-74
2022/11/07 09:33:22;;;;;;;4.00;1.20;;;;;;;13.47;69.22;100360.19;105455;1294;72354;-74
2022/11/07 09:35:49;;;;;;;3.00;1.20;;;;;;;13.46;68.87;100353.88;105552;1278;72072;-75
2022/11/07 09:38:16;;;;;;;4.50;1.20;;;;;;;13.41;68.80;100352.23;105535;1294;72713;-74
2022/11/07 09:40:54;;;;;;;7.00;1.30;;;;;;;13.38;69.09;100353.37;105488;1293;60344;-74
2022/11/07 09:43:48;;;;;;;4.50;1.10;;;;;;;13.34;69.18;100346.80;105415;1297;60199;-74
2022/11/07 09:46:35;;;;;;;4.00;1.00;;;;;;;13.30;69.30;100349.13;105531;1293;75739;-74
2022/11/07 09:49:32;;;;;;;4.70;1.20;;;;;;;13.30;69.70;100349.25;105593;1288;69642;-74
2022/11/07 09:52:02;;;;;;;4.40;1.30;;;;;;;13.31;69.71;100344.53;105453;1287;72704;-74
2022/11/07 09:54:35;;;;;;;3.80;1.10;;;;;;;13.33;69.44;100343.92;105587;1287;62378;-74
2022/11/07 09:57:02;;;;;;;5.90;1.20;;;;;;;13.41;69.49;100341.20;105348;1297;59798;-74
2022/11/07 09:59:37;;;;;;;4.20;1.30;;;;;;;13.54;69.45;100351.19;105576;1294;74559;-74
2022/11/07 10:02:13;;;;;;;4.60;1.30;;;;;;;13.67;69.14;100345.05;105471;1295;69256;-74
2022/11/07 10:04:40;;;;;;;3.90;1.10;;;;;;;13.79;68.31;100348.21;105480;1297;73169;-74
2022/11/07 10:07:26;;;;;;;6.80;1.20;;;;;;;13.92;68.38;100347.19;105502;1296;60448;-74
2022/11/07 10:10:17;;;;;;;4.30;1.20;;;;;;;14.02;67.58;100354.08;105454;1288;60226;-74
2022/11/07 10:13:09;;;;;;;6.20;1.10;;;;;;;14.18;67.34;100359.07;105550;1294;75113;-74
2022/11/07 10:16:09;;;;;;;4.80;1.20;;;;;;;14.38;66.81;100361.81;105608;1292;69163;-74
2022/11/07 10:18:51;;;;;;;5.90;1.20;;;;;;;14.53;66.43;100357.39;105585;1293;70398;-74
2022/11/07 10:21:55;;;;;;;4.90;1.10;;;;;;;14.62;66.02;100369.71;105435;1297;60441;-74
2022/11/07 10:24:22;;;;;;;5.40;1.10;;;;;;;14.71;65.52;100368.70;105570;1288;61566;-74
2022/11/07 10:26:48;;;;;;;4.50;0.90;;;;;;;14.74;65.14;100377.77;105584;1294;59944;-74
2022/11/07 10:29:26;;;;;;;5.90;1.40;;;;;;;14.72;64.98;100373.91;105372;1296;59030;-74
2022/11/07 10:32:07;;;;;;;5.50;1.40;;;;;;;14.72;65.05;100375.55;105404;1297;72015;-74
2022/11/07 10:34:40;;;;;;;5.60;1.20;;;;;;;14.68;65.36;100374.87;105550;1285;62186;-74
2022/11/07 10:37:08;;;;;;;4.20;1.20;;;;;;;14.64;65.43;100374.47;105375;1290;58994;-74
2022/11/07 10:39:34;;;;;;;4.40;1.40;;;;;;;14.58;65.63;100373.98;105555;1288;75606;-74
2022/11/07 10:42:17;;;;;;;6.20;1.30;;;;;;;14.52;65.94;100379.11;105370;1292;71149;-74
2022/11/07 10:44:44;;;;;;;5.90;1.00;;;;;;;14.47;66.18;100379.23;105491;1288;71143;-74
2022/11/07 10:47:19;;;;;;;5.00;1.50;;;;;;;14.45;66.28;100383.59;105402;1295;62588;-74
2022/11/07 10:50:00;;;;;;;4.90;1.10;;;;;;;14.45;66.45;100373.98;105373;1297;59053;-74
2022/11/07 10:52:28;;;;;;;5.60;1.40;;;;;;;14.44;66.59;100376.81;105374;1294;73000;-74
2022/11/07 10:55:14;;;;;;;4.40;1.10;;;;;;;14.41;66.59;100383.98;105324;1292;69944;-74
2022/11/07 10:57:42;;;;;;;5.80;1.20;;;;;;;14.40;66.75;100382.98;105549;1293;72445;-74
2022/11/07 11:00:22;;;;;;;4.20;1.10;;;;;;;14.43;66.96;100382.55;105489;1294;61771;-74
2022/11/07 11:02:49;;;;;;;7.00;1.50;;;;;;;14.44;66.56;100381.73;105515;1295;59535;-74
2022/11/07 11:05:26;;;;;;;4.30;1.20;;;;;;;14.44;66.65;100386.80;105195;1299;277783;-74
2022/11/07 11:08:06;;;;;;;5.10;1.30;;;;;;;14.43;66.62;100379.02;105226;1290;70672;-74
2022/11/07 11:10:37;;;;;;;3.70;1.00;;;;;;;14.43;66.67;100376.24;105436;1294;72788;-74
2022/11/07 11:13:04;;;;;;;5.60;1.30;;;;;;;14.38;66.83;100380.07;105458;1294;62380;-75
2022/11/07 11:15:31;;;;;;;4.30;1.20;;;;;;;14.35;66.83;100376.22;105454;1295;60736;-74
2022/11/07 11:18:12;;;;;;;6.00;1.60;;;;;;;14.42;66.99;100368.31;105321;1295;74138;-73
2022/11/07 11:20:45;;;;;;;5.80;1.20;;;;;;;14.69;66.66;100367.75;105375;1297;70951;-74
2022/11/07 11:23:19;;;;;;;6.20;1.30;;;;;;;14.92;65.99;100363.48;105406;1290;71551;-73
2022/11/07 11:25:48;;;;;;;5.30;1.20;;;;;;;15.00;65.85;100364.52;105485;1287;60459;-73
2022/11/07 11:28:29;;;;;;;3.90;1.30;;;;;;;14.98;65.36;100361.31;105487;1294;60399;-74
2022/11/07 11:31:04;;;;;;;5.40;1.00;;;;;;;14.92;65.39;100366.70;105406;1295;75777;-73
2022/11/07 11:33:43;;;;;;;3.60;1.20;;;;;;;14.96;65.54;100359.23;105539;1294;70011;-74
2022/11/07 11:36:20;;;;;;;5.70;1.60;;;;;;;14.97;65.22;100353.35;105551;1295;70589;-73
2022/11/07 11:38:54;;;;;;;6.50;1.20;;;;;;;15.05;64.85;100351.71;105404;1293;59575;-73